Time;durP1;ratioP1;P1;durP2;ratioP2;P2;SDS_P1;SDS_P2;PMS_P1;PMS_P2;Temp;Humidity;BMP_temperature;BMP_pressure;BME280_temperature;BME280_humidity;BME280_pressure;Samples;Min_cycle;Max_cycle;Signal;HPM_P1;HPM_P2
2021/04/28 00:01:39;;;;;;;1.52;0.60;;;;;;;5.13;63.59;101042.50;4927354;29;20039;-81
2021/04/28 00:04:06;;;;;;;0.70;0.60;;;;;;;5.10;62.27;101034.06;4884600;29;21737;-81
2021/04/28 00:06:32;;;;;;;0.85;0.75;;;;;;;5.04;61.93;101042.16;4908026;29;20062;-81
2021/04/28 00:08:58;;;;;;;0.73;0.57;;;;;;;4.99;62.04;101032.03;4868631;29;20075;-81
2021/04/28 00:11:24;;;;;;;1.55;0.75;;;;;;;5.11;61.96;101048.66;4886432;29;20048;-81
2021/04/28 00:13:50;;;;;;;1.00;0.90;;;;;;;5.03;61.40;101037.91;4898029;29;20578;-81
2021/04/28 00:16:19;;;;;;;0.60;0.60;;;;;;;4.94;60.94;101030.59;4929231;29;20059;-81
2021/04/28 00:18:45;;;;;;;0.63;0.60;;;;;;;4.90;60.50;101018.78;4905191;29;20058;-81
2021/04/28 00:21:11;;;;;;;2.75;0.80;;;;;;;4.96;61.22;101015.88;4895616;29;20056;-82
2021/04/28 00:23:37;;;;;;;0.77;0.70;;;;;;;5.06;60.66;101040.31;4894143;29;20059;-82
2021/04/28 00:26:02;;;;;;;1.17;0.70;;;;;;;4.83;60.58;101013.09;4857128;29;20056;-81
2021/04/28 00:28:28;;;;;;;0.57;0.57;;;;;;;4.90;59.09;101032.53;4919518;29;20044;-81
2021/04/28 00:30:53;;;;;;;0.90;0.70;;;;;;;4.95;58.59;101027.13;4864414;29;20045;-81
2021/04/28 00:33:19;;;;;;;0.65;0.47;;;;;;;4.79;58.39;101009.84;4888271;29;20233;-82
2021/04/28 00:35:44;;;;;;;3.10;0.68;;;;;;;4.85;58.27;101014.69;4890471;29;20052;-81
2021/04/28 00:38:10;;;;;;;1.63;0.90;;;;;;;4.91;57.81;101023.03;4884497;29;20104;-80
2021/04/28 00:40:39;;;;;;;0.82;0.65;;;;;;;4.70;57.93;101000.00;4887572;29;20617;-81
2021/04/28 00:43:05;;;;;;;0.73;0.60;;;;;;;4.87;57.68;101031.84;4908520;29;20036;-81
2021/04/28 00:45:33;;;;;;;0.70;0.50;;;;;;;4.80;57.56;101028.72;4907795;29;20044;-81
2021/04/28 00:48:01;;;;;;;0.73;0.60;;;;;;;4.72;57.88;101021.38;4873544;29;20047;-81
2021/04/28 00:50:42;;;;;;;1.02;0.60;;;;;;;4.51;58.05;100989.75;4880871;29;20044;-81
2021/04/28 00:53:10;;;;;;;0.60;0.60;;;;;;;4.45;57.43;100997.78;4909728;29;20138;-81
2021/04/28 00:55:36;;;;;;;0.70;0.70;;;;;;;4.64;57.93;101009.75;4924558;29;20135;-81
2021/04/28 00:58:03;;;;;;;0.60;0.60;;;;;;;4.53;57.48;100992.25;4897857;29;20381;-81
2021/04/28 01:00:29;;;;;;;0.47;0.40;;;;;;;4.54;57.83;100988.78;4873877;29;20062;-81
2021/04/28 01:02:56;;;;;;;1.08;0.60;;;;;;;4.59;57.50;101012.59;4886568;29;20094;-80
2021/04/28 01:05:23;;;;;;;0.70;0.60;;;;;;;4.32;57.48;100972.72;4894489;29;20534;-80
2021/04/28 01:07:50;;;;;;;0.63;0.63;;;;;;;4.43;57.82;101001.34;4926386;29;20632;-80
2021/04/28 01:10:28;;;;;;;0.65;0.60;;;;;;;4.47;57.65;100997.72;4928603;29;20052;-80
2021/04/28 01:12:54;;;;;;;0.63;0.60;;;;;;;4.37;57.60;100993.94;4929329;29;20044;-81
2021/04/28 01:15:25;;;;;;;3.70;0.70;;;;;;;4.40;57.10;100998.94;4885630;29;20502;-80
2021/04/28 01:18:01;;;;;;;1.13;0.50;;;;;;;4.13;57.77;100955.56;4911593;29;20043;-81
2021/04/28 01:20:32;;;;;;;1.70;0.50;;;;;;;4.34;57.23;100987.19;4904507;29;20517;-80
2021/04/28 01:22:58;;;;;;;0.75;0.75;;;;;;;4.23;57.57;100966.25;4898276;29;20095;-81
2021/04/28 01:25:26;;;;;;;0.50;0.50;;;;;;;4.14;57.18;100962.38;4887376;29;20139;-80
2021/04/28 01:28:03;;;;;;;0.40;0.40;;;;;;;4.30;57.01;100984.81;4886387;29;20511;-80
2021/04/28 01:30:38;;;;;;;0.57;0.47;;;;;;;4.14;57.28;100954.66;4880366;29;20426;-80
2021/04/28 01:33:10;;;;;;;0.60;0.60;;;;;;;4.14;56.77;100964.13;4889188;29;20115;-80
2021/04/28 01:35:37;;;;;;;0.57;0.50;;;;;;;4.25;57.55;100987.63;4889499;29;20044;-80
2021/04/28 01:38:05;;;;;;;1.08;0.60;;;;;;;4.07;57.41;100955.00;4925487;29;20052;-80
2021/04/28 01:40:33;;;;;;;1.10;0.60;;;;;;;4.09;58.14;100966.09;4896316;29;20069;-80
2021/04/28 01:43:00;;;;;;;0.55;0.55;;;;;;;4.09;56.84;100976.38;4889343;29;20063;-80
2021/04/28 01:45:26;;;;;;;0.82;0.60;;;;;;;3.99;56.25;100957.16;4914265;29;20104;-80
2021/04/28 01:47:52;;;;;;;0.47;0.47;;;;;;;3.94;56.17;100955.59;4885490;29;20051;-80
2021/04/28 01:50:21;;;;;;;0.50;0.50;;;;;;;3.97;56.66;100961.53;4884349;29;20826;-80
2021/04/28 01:52:47;;;;;;;0.50;0.50;;;;;;;4.09;56.22;100973.81;4895353;29;20158;-80
2021/04/28 01:55:13;;;;;;;2.25;0.50;;;;;;;3.87;56.34;100943.09;4927814;29;20489;-80
2021/04/28 01:57:48;;;;;;;0.50;0.50;;;;;;;3.74;56.22;100929.13;4924525;29;20805;-81
2021/04/28 02:00:21;;;;;;;0.60;0.60;;;;;;;3.94;56.58;100970.22;4906307;29;20120;-80
2021/04/28 02:02:49;;;;;;;1.65;0.50;;;;;;;3.81;56.73;100948.56;4913529;29;20056;-81
2021/04/28 02:05:18;;;;;;;0.60;0.60;;;;;;;3.75;56.24;100946.25;4887509;29;20052;-81
2021/04/28 02:07:45;;;;;;;1.13;0.57;;;;;;;3.86;57.27;100965.44;4894811;29;20044;-81
2021/04/28 02:10:12;;;;;;;1.48;0.82;;;;;;;3.79;56.69;100963.25;4879768;29;20108;-81
2021/04/28 02:12:40;;;;;;;0.50;0.50;;;;;;;3.79;57.68;100964.09;4873503;29;20056;-81
2021/04/28 02:15:10;;;;;;;0.80;0.60;;;;;;;3.73;58.16;100959.19;4881281;29;20080;-81
2021/04/28 02:17:49;;;;;;;0.70;0.70;;;;;;;3.60;57.53;100958.13;4882956;29;20047;-81
2021/04/28 02:20:16;;;;;;;0.77;0.50;;;;;;;3.55;58.44;100948.03;4895676;29;20048;-81
2021/04/28 02:22:50;;;;;;;;;;;;;;;3.60;58.53;100961.53;4917274;29;20048;-81
2021/04/28 02:25:19;;;;;;;0.50;0.50;;;;;;;3.43;58.91;100935.75;4911431;29;19926;-81
2021/04/28 02:28:05;;;;;;;0.93;0.52;;;;;;;3.36;57.91;100936.06;4878864;29;20513;-80
2021/04/28 02:30:34;;;;;;;0.50;0.50;;;;;;;3.41;59.75;100945.28;4890013;29;20044;-81
2021/04/28 02:33:03;;;;;;;0.50;0.50;;;;;;;3.33;58.76;100930.16;4888071;29;20051;-81
2021/04/28 02:35:34;;;;;;;0.47;0.47;;;;;;;3.14;59.12;100901.03;4891979;29;20127;-81
2021/04/28 02:38:13;;;;;;;0.50;0.50;;;;;;;3.29;58.86;100940.69;4904659;29;20510;-80
2021/04/28 02:41:02;;;;;;;0.50;0.50;;;;;;;3.22;59.70;100929.81;4911684;29;20112;-80
2021/04/28 02:43:31;;;;;;;0.60;0.60;;;;;;;3.20;59.75;100929.06;4895606;29;20436;-80
2021/04/28 02:46:05;;;;;;;0.57;0.57;;;;;;;3.11;59.58;100929.50;4890357;29;20480;-80
2021/04/28 02:48:35;;;;;;;0.63;0.47;;;;;;;3.08;59.18;100934.78;4879857;29;20100;-80
2021/04/28 02:51:20;;;;;;;0.50;0.50;;;;;;;3.10;60.09;100927.00;4905336;29;20058;-80
2021/04/28 02:53:47;;;;;;;0.70;0.68;;;;;;;3.13;60.64;100914.81;4896162;29;20048;-80
2021/04/28 02:56:13;;;;;;;0.45;0.45;;;;;;;3.20;61.22;100931.63;4863098;29;20040;-80
2021/04/28 02:58:40;;;;;;;0.60;0.60;;;;;;;3.08;61.27;100916.75;4883100;29;20055;-81
2021/04/28 03:01:09;;;;;;;0.70;0.55;;;;;;;3.16;61.14;100934.41;4894552;29;21305;-80
2021/04/28 03:03:39;;;;;;;0.50;0.50;;;;;;;3.15;61.51;100927.59;4906864;29;20069;-80
2021/04/28 03:06:14;;;;;;;0.50;0.50;;;;;;;3.06;61.64;100912.59;4911772;29;20119;-80
2021/04/28 03:09:15;;;;;;;0.82;0.52;;;;;;;3.04;62.17;100918.63;4902348;29;20051;-80
2021/04/28 03:11:44;;;;;;;0.50;0.50;;;;;;;2.82;62.14;100879.34;4873912;29;20044;-80
2021/04/28 03:14:14;;;;;;;0.83;0.60;;;;;;;2.91;62.37;100906.41;4885902;29;20048;-80
2021/04/28 03:16:41;;;;;;;0.60;0.60;;;;;;;2.91;62.94;100922.66;4900968;29;20059;-80
2021/04/28 03:19:08;;;;;;;0.60;0.60;;;;;;;2.96;62.71;100920.72;4931636;29;20048;-80
2021/04/28 03:21:40;;;;;;;0.90;0.70;;;;;;;2.80;62.78;100888.84;4883318;29;20044;-80
2021/04/28 03:24:07;;;;;;;1.27;0.65;;;;;;;2.93;63.24;100918.28;4901575;29;20578;-80
2021/04/28 03:26:32;;;;;;;0.40;0.40;;;;;;;2.85;62.76;100901.50;4874622;29;20048;-80
2021/04/28 03:28:59;;;;;;;0.47;0.47;;;;;;;2.78;63.14;100889.84;4888204;29;20043;-80
2021/04/28 03:31:25;;;;;;;1.52;0.70;;;;;;;2.88;63.19;100909.13;4910164;29;20043;-81
2021/04/28 03:33:51;;;;;;;0.50;0.50;;;;;;;2.83;62.93;100906.72;4918841;29;20063;-80
2021/04/28 03:36:18;;;;;;;1.73;0.70;;;;;;;2.85;63.21;100915.19;4902473;29;20069;-81
2021/04/28 03:39:06;;;;;;;1.05;0.50;;;;;;;2.69;63.68;100896.19;4905936;29;20387;-80
2021/04/28 03:41:32;;;;;;;0.55;0.55;;;;;;;2.79;63.53;100912.06;4872120;29;20051;-80
2021/04/28 03:43:58;;;;;;;0.60;0.60;;;;;;;2.57;64.34;100900.16;4913297;29;20502;-81
2021/04/28 03:46:25;;;;;;;0.60;0.60;;;;;;;2.47;63.92;100872.34;4886722;29;20050;-81
2021/04/28 03:48:53;;;;;;;0.52;0.52;;;;;;;2.60;63.96;100901.75;4904069;29;20128;-80
2021/04/28 03:51:22;;;;;;;0.52;0.50;;;;;;;2.59;64.54;100890.66;4946482;28;20055;-81
2021/04/28 03:54:25;;;;;;;0.90;0.68;;;;;;;2.37;64.40;100866.78;4907423;29;20059;-81
2021/04/28 03:56:57;;;;;;;0.60;0.60;;;;;;;2.61;64.45;100913.72;4917809;29;20446;-81
2021/04/28 03:59:23;;;;;;;0.82;0.63;;;;;;;2.42;64.84;100893.94;4897748;29;20047;-81
2021/04/28 04:01:53;;;;;;;0.68;0.68;;;;;;;2.63;64.54;100906.75;4920325;28;20080;-81
2021/04/28 04:04:19;;;;;;;0.70;0.70;;;;;;;2.51;64.78;100891.88;4894877;29;20503;-81
2021/04/28 04:07:03;;;;;;;0.93;0.68;;;;;;;2.79;64.90;100923.19;4909926;29;20115;-81
2021/04/28 04:09:37;;;;;;;;;;;;;;;2.80;64.53;100921.47;4902839;29;20099;-80
2021/04/28 04:12:04;;;;;;;0.88;0.70;;;;;;;2.69;65.18;100911.63;4909577;29;19918;-81
2021/04/28 04:14:36;;;;;;;2.05;0.70;;;;;;;2.72;65.29;100914.09;4884959;29;20067;-80
2021/04/28 04:17:02;;;;;;;0.50;0.50;;;;;;;2.80;65.12;100924.88;4899078;29;20056;-81
2021/04/28 04:19:28;;;;;;;0.63;0.63;;;;;;;2.66;65.46;100901.47;4894452;29;20039;-81
2021/04/28 04:22:19;;;;;;;0.50;0.50;;;;;;;2.70;65.53;100906.44;4887120;29;20071;-81
2021/04/28 04:25:20;;;;;;;1.85;0.70;;;;;;;2.77;65.18;100914.72;4895814;29;20040;-82
2021/04/28 04:27:47;;;;;;;1.45;0.60;;;;;;;2.82;65.06;100914.50;4901655;29;20047;-81
2021/04/28 04:30:15;;;;;;;0.50;0.50;;;;;;;2.86;64.86;100921.19;4905613;29;20039;-81
2021/04/28 04:33:12;;;;;;;0.65;0.65;;;;;;;2.86;64.57;100903.16;4906473;29;20091;-81
2021/04/28 04:35:56;;;;;;;0.60;0.60;;;;;;;2.67;64.37;100875.69;4902809;29;20135;-79
2021/04/28 04:38:27;;;;;;;0.52;0.52;;;;;;;2.92;63.88;100913.22;4909379;29;20096;-79
2021/04/28 04:41:11;;;;;;;0.57;0.52;;;;;;;2.99;63.29;100919.75;4916153;29;20488;-78
2021/04/28 04:43:43;;;;;;;1.02;0.60;;;;;;;2.74;63.57;100876.28;4907502;29;20611;-78
2021/04/28 04:46:18;;;;;;;0.70;0.65;;;;;;;3.03;64.06;100911.81;4909833;29;20514;-78
2021/04/28 04:48:44;;;;;;;0.57;0.50;;;;;;;2.98;63.62;100906.03;4898297;29;20055;-78
2021/04/28 04:51:09;;;;;;;0.70;0.70;;;;;;;3.03;63.61;100906.66;4924887;29;20058;-78
2021/04/28 04:53:37;;;;;;;0.60;0.60;;;;;;;3.06;63.09;100903.13;4900696;29;20043;-78
2021/04/28 04:56:03;;;;;;;1.00;0.70;;;;;;;2.97;63.79;100876.06;4902040;29;20051;-79
2021/04/28 04:58:29;;;;;;;1.90;0.60;;;;;;;3.02;62.53;100886.16;4903407;29;20450;-79
2021/04/28 05:00:54;;;;;;;0.70;0.70;;;;;;;3.23;62.89;100902.34;4923358;29;20043;-79
2021/04/28 05:03:20;;;;;;;1.13;0.70;;;;;;;3.13;62.57;100880.53;4908405;29;20514;-79
2021/04/28 05:05:45;;;;;;;4.70;0.70;;;;;;;3.13;62.53;100875.38;4916844;29;20056;-78
2021/04/28 05:08:11;;;;;;;0.57;0.57;;;;;;;3.28;62.57;100895.25;4914503;29;20059;-78
2021/04/28 05:10:36;;;;;;;1.95;0.60;;;;;;;3.18;61.77;100873.41;4913898;29;20058;-78
2021/04/28 05:13:02;;;;;;;0.50;0.50;;;;;;;3.06;61.42;100861.97;4902246;29;20051;-79
2021/04/28 05:15:27;;;;;;;0.75;0.70;;;;;;;3.09;62.29;100859.25;4896346;29;20048;-79
2021/04/28 05:17:58;;;;;;;0.73;0.50;;;;;;;3.32;62.44;100892.47;4895069;29;20112;-79
2021/04/28 05:20:24;;;;;;;0.70;0.70;;;;;;;3.31;61.79;100889.97;4869788;29;20044;-79
2021/04/28 05:22:50;;;;;;;0.60;0.55;;;;;;;3.45;62.11;100907.34;4915521;29;20055;-79
2021/04/28 05:25:34;;;;;;;0.60;0.60;;;;;;;3.46;61.86;100886.69;4912624;29;20103;-79
2021/04/28 05:27:59;;;;;;;0.60;0.60;;;;;;;3.51;61.85;100887.28;4907941;29;20043;-79
2021/04/28 05:30:26;;;;;;;0.88;0.60;;;;;;;3.62;61.24;100902.25;4901780;29;20487;-78
2021/04/28 05:32:51;;;;;;;0.95;0.63;;;;;;;3.64;60.69;100897.84;4906440;29;20047;-78
2021/04/28 05:35:17;;;;;;;1.15;0.75;;;;;;;3.74;60.25;100895.66;4899289;29;20052;-79
2021/04/28 05:37:43;;;;;;;0.75;0.50;;;;;;;3.79;60.29;100899.69;4911636;29;20079;-78
2021/04/28 05:40:09;;;;;;;0.60;0.60;;;;;;;3.81;59.96;100887.56;4928463;29;20055;-78
2021/04/28 05:42:36;;;;;;;0.60;0.60;;;;;;;3.96;60.43;100906.59;4929196;29;20517;-76
2021/04/28 05:45:04;;;;;;;0.52;0.50;;;;;;;3.94;59.97;100896.34;4902374;29;20077;-77
2021/04/28 05:47:30;;;;;;;1.20;0.60;;;;;;;3.89;59.22;100880.28;4914116;29;20154;-77
2021/04/28 05:49:56;;;;;;;0.80;0.57;;;;;;;3.98;59.83;100885.91;4917908;29;20146;-78
2021/04/28 05:52:21;;;;;;;0.60;0.60;;;;;;;4.04;59.53;100867.56;4891719;29;20051;-78
2021/04/28 05:54:47;;;;;;;0.50;0.50;;;;;;;4.21;59.25;100901.88;4900331;29;20122;-78
2021/04/28 05:57:16;;;;;;;1.08;0.60;;;;;;;4.23;58.79;100884.59;4918531;29;20055;-77
2021/04/28 05:59:43;;;;;;;0.57;0.57;;;;;;;4.32;58.35;100880.72;4909974;29;20490;-77
2021/04/28 06:02:09;;;;;;;0.70;0.70;;;;;;;4.46;58.75;100896.31;4896814;29;20155;-76
2021/04/28 06:04:34;;;;;;;0.60;0.60;;;;;;;4.53;57.61;100896.84;4903126;29;20056;-77
2021/04/28 06:07:00;;;;;;;0.65;0.63;;;;;;;4.54;57.94;100888.19;4911945;29;20099;-77
2021/04/28 06:09:26;;;;;;;0.70;0.70;;;;;;;4.44;58.13;100854.28;4879653;29;20430;-77
2021/04/28 06:11:51;;;;;;;0.60;0.60;;;;;;;4.68;56.73;100882.31;4909893;29;20044;-77
2021/04/28 06:14:16;;;;;;;0.60;0.60;;;;;;;4.77;55.77;100877.50;4921377;29;20084;-78
2021/04/28 06:16:43;;;;;;;1.80;0.70;;;;;;;4.94;55.99;100889.50;4896831;29;20036;-77
2021/04/28 06:19:10;;;;;;;0.70;0.55;;;;;;;4.91;56.10;100865.63;4904121;29;20068;-78
2021/04/28 06:21:37;;;;;;;0.40;0.40;;;;;;;5.11;56.26;100883.44;4895376;29;20066;-77
2021/04/28 06:24:04;;;;;;;0.82;0.60;;;;;;;5.11;55.76;100862.78;4916855;29;20150;-78
2021/04/28 06:26:30;;;;;;;0.65;0.50;;;;;;;5.27;55.37;100878.28;4912027;29;20056;-76
2021/04/28 06:28:55;;;;;;;0.60;0.60;;;;;;;5.33;53.91;100888.25;4911782;29;20091;-78
2021/04/28 06:31:21;;;;;;;0.60;0.60;;;;;;;5.17;54.14;100849.53;4903759;29;20074;-78
2021/04/28 06:33:47;;;;;;;1.30;0.80;;;;;;;5.39;52.97;100875.03;4938386;28;20351;-78
2021/04/28 06:36:13;;;;;;;0.60;0.60;;;;;;;5.29;53.88;100845.47;4899544;29;20147;-77
2021/04/28 06:38:38;;;;;;;1.05;0.60;;;;;;;5.44;54.26;100857.53;4898929;29;20058;-77
2021/04/28 06:41:04;;;;;;;0.65;0.65;;;;;;;5.52;53.01;100857.09;4901310;29;20131;-77
2021/04/28 06:43:30;;;;;;;0.52;0.52;;;;;;;5.74;53.48;100873.88;4893416;29;20047;-75
2021/04/28 06:45:57;;;;;;;1.08;0.60;;;;;;;5.72;52.96;100854.19;4894702;29;20096;-77
2021/04/28 06:48:23;;;;;;;0.52;0.52;;;;;;;5.91;52.49;100866.94;4892121;29;20082;-78
2021/04/28 06:50:48;;;;;;;0.57;0.57;;;;;;;6.00;51.66;100871.56;4929507;29;20067;-77
2021/04/28 06:53:14;;;;;;;0.50;0.50;;;;;;;5.94;51.58;100854.69;4900517;29;20498;-78
2021/04/28 06:55:39;;;;;;;0.55;0.50;;;;;;;6.06;51.47;100851.34;4900228;29;20044;-78
2021/04/28 06:58:05;;;;;;;0.40;0.40;;;;;;;6.25;51.71;100858.03;4879178;29;20043;-78
2021/04/28 07:00:31;;;;;;;1.75;0.65;;;;;;;6.10;51.92;100828.75;4898054;29;20051;-78
2021/04/28 07:02:57;;;;;;;0.50;0.40;;;;;;;6.29;51.24;100842.28;4867698;29;20075;-78
2021/04/28 07:05:24;;;;;;;0.63;0.40;;;;;;;6.41;50.79;100857.97;4926779;29;20051;-78
2021/04/28 07:07:51;;;;;;;0.50;0.50;;;;;;;6.51;50.72;100857.31;4885619;29;20074;-77
2021/04/28 07:10:17;;;;;;;0.70;0.70;;;;;;;6.44;51.86;100831.91;4927116;29;20502;-78
2021/04/28 07:12:43;;;;;;;0.40;0.40;;;;;;;6.79;52.59;100856.47;4866525;29;20406;-77
2021/04/28 07:15:09;;;;;;;0.40;0.40;;;;;;;6.89;51.16;100854.97;4906822;29;20061;-78
2021/04/28 07:17:35;;;;;;;1.00;0.60;;;;;;;6.94;49.75;100846.91;4898577;29;20040;-76
2021/04/28 07:20:03;;;;;;;1.77;0.70;;;;;;;6.99;49.49;100860.41;4906245;29;20044;-78
2021/04/28 07:22:28;;;;;;;0.93;0.60;;;;;;;7.03;49.99;100859.31;4931806;28;20448;-77
2021/04/28 07:24:54;;;;;;;0.43;0.43;;;;;;;7.08;49.68;100844.31;4879780;29;20104;-77
2021/04/28 07:27:21;;;;;;;1.73;0.70;;;;;;;7.20;49.54;100853.06;4894187;29;20047;-77
2021/04/28 07:29:47;;;;;;;0.50;0.50;;;;;;;7.22;48.73;100848.63;4869070;29;20063;-77
2021/04/28 07:32:13;;;;;;;0.65;0.50;;;;;;;7.30;49.63;100838.59;4916843;29;20170;-77
2021/04/28 07:34:39;;;;;;;0.50;0.50;;;;;;;7.58;49.03;100866.16;4867435;29;20132;-77
2021/04/28 07:37:04;;;;;;;0.40;0.40;;;;;;;7.68;49.32;100856.84;4893579;29;20407;-77
2021/04/28 07:39:30;;;;;;;0.57;0.50;;;;;;;7.67;48.80;100829.25;4873320;29;20056;-77
2021/04/28 07:41:56;;;;;;;2.05;0.70;;;;;;;7.74;47.43;100840.09;4894089;29;20047;-77
2021/04/28 07:44:24;;;;;;;1.98;0.70;;;;;;;7.60;47.73;100794.31;4893560;29;20044;-77
2021/04/28 07:46:50;;;;;;;0.75;0.52;;;;;;;7.98;47.53;100832.44;4924747;29;20055;-76
2021/04/28 07:49:16;;;;;;;0.90;0.50;;;;;;;8.36;48.16;100845.44;4878906;29;20052;-77
2021/04/28 07:51:42;;;;;;;0.77;0.50;;;;;;;8.28;46.33;100826.94;4886716;29;20509;-76
2021/04/28 07:54:07;;;;;;;0.40;0.40;;;;;;;8.37;46.19;100828.94;4906825;29;20063;-77
2021/04/28 07:56:33;;;;;;;1.73;0.40;;;;;;;8.52;45.60;100822.69;4899447;29;20044;-77
2021/04/28 07:58:59;;;;;;;0.50;0.50;;;;;;;8.63;46.03;100824.56;4902811;29;20824;-77
2021/04/28 08:01:24;;;;;;;0.50;0.50;;;;;;;8.89;45.42;100836.53;4845771;29;20514;-77
2021/04/28 08:03:50;;;;;;;0.40;0.40;;;;;;;9.11;44.84;100841.03;4897215;29;20199;-77
2021/04/28 08:06:15;;;;;;;1.38;0.40;;;;;;;9.01;44.60;100822.69;4858582;29;20234;-78
2021/04/28 08:08:41;;;;;;;1.45;0.50;;;;;;;9.03;45.49;100804.38;4892478;29;20060;-78
2021/04/28 08:11:07;;;;;;;0.50;0.50;;;;;;;9.15;44.84;100813.06;4874386;29;20047;-77
2021/04/28 08:13:32;;;;;;;0.60;0.60;;;;;;;9.18;44.06;100811.09;4891029;29;20051;-77
2021/04/28 08:15:58;;;;;;;0.77;0.50;;;;;;;9.50;44.62;100826.91;4916301;29;20399;-76
2021/04/28 08:18:24;;;;;;;0.50;0.45;;;;;;;9.55;44.13;100824.00;4891884;29;20098;-78
2021/04/28 08:20:50;;;;;;;0.80;0.40;;;;;;;9.62;43.08;100807.00;4887841;29;20471;-78
2021/04/28 08:23:15;;;;;;;0.77;0.47;;;;;;;9.86;45.00;100819.94;4900443;29;20189;-77
2021/04/28 08:25:42;;;;;;;0.57;0.50;;;;;;;9.86;43.69;100788.72;4910831;29;20135;-77
2021/04/28 08:28:09;;;;;;;0.50;0.45;;;;;;;10.09;43.50;100800.84;4879317;29;20079;-78
2021/04/28 08:30:34;;;;;;;0.52;0.50;;;;;;;10.24;41.19;100807.50;4898109;29;20487;-77
2021/04/28 08:33:00;;;;;;;0.50;0.50;;;;;;;10.40;43.45;100795.91;4878460;29;20139;-78
2021/04/28 08:35:25;;;;;;;0.60;0.52;;;;;;;10.52;41.94;100797.56;4873133;29;20044;-77
2021/04/28 08:37:51;;;;;;;0.60;0.60;;;;;;;10.66;41.87;100794.72;4895730;29;20043;-78
2021/04/28 08:40:18;;;;;;;0.43;0.43;;;;;;;10.85;40.00;100810.53;4899156;29;20057;-78
2021/04/28 08:42:44;;;;;;;2.85;0.43;;;;;;;11.07;38.90;100814.88;4897110;29;20047;-77
2021/04/28 08:45:11;;;;;;;0.65;0.43;;;;;;;10.97;39.38;100794.91;4893925;29;20072;-78
2021/04/28 08:47:37;;;;;;;0.30;0.30;;;;;;;11.15;39.58;100801.25;4882944;29;20099;-77
2021/04/28 08:50:05;;;;;;;0.60;0.60;;;;;;;11.29;40.56;100802.72;4925312;29;20054;-76
2021/04/28 08:52:34;;;;;;;0.47;0.40;;;;;;;11.41;39.07;100814.75;4910887;29;20068;-78
2021/04/28 08:54:59;;;;;;;0.38;0.38;;;;;;;11.46;38.17;100802.16;4895542;29;20051;-77
2021/04/28 08:57:25;;;;;;;0.50;0.50;;;;;;;11.60;37.39;100795.81;4877679;29;20391;-77
2021/04/28 08:59:50;;;;;;;1.58;0.43;;;;;;;11.84;38.19;100785.16;4872537;29;20056;-77
2021/04/28 09:02:22;;;;;;;0.65;0.60;;;;;;;11.92;38.57;100772.31;4914678;29;20466;-77
2021/04/28 09:05:07;;;;;;;0.40;0.40;;;;;;;12.24;36.84;100808.75;4926852;29;20068;-79
2021/04/28 09:07:33;;;;;;;0.98;0.50;;;;;;;12.35;37.37;100787.75;4911776;29;20040;-78
2021/04/28 09:10:13;;;;;;;0.43;0.43;;;;;;;12.27;36.31;100780.59;4870775;29;20044;-77
2021/04/28 09:12:39;;;;;;;0.95;0.60;;;;;;;12.34;35.50;100786.09;4891102;29;20466;-78
2021/04/28 09:15:07;;;;;;;0.40;0.40;;;;;;;12.48;35.69;100787.53;4884688;29;20071;-76
2021/04/28 09:17:50;;;;;;;3.30;0.50;;;;;;;12.54;34.85;100789.59;4915636;29;20048;-77
2021/04/28 09:20:37;;;;;;;1.20;0.50;;;;;;;12.78;35.67;100797.13;4914945;29;20430;-77
2021/04/28 09:23:35;;;;;;;0.50;0.50;;;;;;;12.82;34.92;100790.66;4910250;29;20142;-78
2021/04/28 09:26:19;;;;;;;0.40;0.40;;;;;;;12.77;34.20;100771.94;4920552;29;20693;-78
2021/04/28 09:29:05;;;;;;;1.38;0.43;;;;;;;12.98;35.21;100781.31;4887955;29;20136;-77
2021/04/28 09:31:32;;;;;;;1.05;0.38;;;;;;;13.17;35.09;100783.13;4909995;29;20139;-77
2021/04/28 09:33:59;;;;;;;0.60;0.50;;;;;;;13.17;33.01;100766.63;4907715;29;20052;-78
2021/04/28 09:36:35;;;;;;;1.38;0.40;;;;;;;13.45;34.64;100780.66;4894563;29;20080;-78
2021/04/28 09:39:18;;;;;;;1.63;0.40;;;;;;;13.47;33.42;100773.53;4913457;29;20406;-78
2021/04/28 09:41:50;;;;;;;0.65;0.30;;;;;;;13.57;31.79;100776.94;4909923;29;20135;-78
2021/04/28 09:44:19;;;;;;;0.95;0.40;;;;;;;13.67;31.37;100783.00;4896616;29;20051;-82
2021/04/28 09:47:09;;;;;;;0.40;0.40;;;;;;;13.60;31.09;100774.03;4877174;29;20037;-79
2021/04/28 09:49:56;;;;;;;0.70;0.30;;;;;;;13.71;30.63;100779.13;4906669;29;20048;-80
2021/04/28 09:52:37;;;;;;;0.63;0.30;;;;;;;13.86;32.11;100758.56;4913153;29;20078;-77
2021/04/28 09:55:15;;;;;;;0.47;0.43;;;;;;;13.98;29.81;100770.50;4895204;29;20076;-81
2021/04/28 09:57:41;;;;;;;0.40;0.40;;;;;;;14.18;30.97;100769.50;4912498;29;20062;-78
2021/04/28 10:00:24;;;;;;;1.15;0.50;;;;;;;14.27;30.22;100766.97;4912156;29;20382;-79
2021/04/28 10:02:52;;;;;;;1.58;0.38;;;;;;;14.23;31.13;100763.81;4894951;29;20058;-78
2021/04/28 10:05:29;;;;;;;0.73;0.40;;;;;;;14.33;30.08;100751.50;4894290;29;20066;-80
2021/04/28 10:08:09;;;;;;;0.63;0.40;;;;;;;14.51;30.58;100755.00;4898228;29;20416;-79
2021/04/28 10:10:37;;;;;;;1.80;0.40;;;;;;;14.64;30.34;100757.28;4907644;29;20041;-78
2021/04/28 10:13:04;;;;;;;0.35;0.35;;;;;;;14.63;31.55;100739.09;4911840;29;20120;-77
2021/04/28 10:15:29;;;;;;;0.40;0.40;;;;;;;14.70;31.78;100745.38;4899252;29;20044;-79
2021/04/28 10:17:55;;;;;;;0.40;0.30;;;;;;;14.68;30.72;100726.38;4881165;29;20895;-78
2021/04/28 10:20:21;;;;;;;0.40;0.40;;;;;;;14.71;31.76;100737.38;4914267;29;20048;-77
2021/04/28 10:22:50;;;;;;;0.50;0.50;;;;;;;14.94;31.78;100735.16;4912919;29;20871;-78
2021/04/28 10:25:17;;;;;;;0.50;0.50;;;;;;;14.84;31.47;100713.41;4912903;29;20062;-78
2021/04/28 10:27:44;;;;;;;0.30;0.30;;;;;;;15.00;30.82;100729.31;4930869;29;20057;-77
2021/04/28 10:30:14;;;;;;;0.70;0.38;;;;;;;15.05;30.24;100726.22;4914893;29;20051;-77
2021/04/28 10:32:41;;;;;;;0.40;0.40;;;;;;;15.01;29.08;100723.09;4905578;29;20505;-77
2021/04/28 10:35:09;;;;;;;0.40;0.40;;;;;;;15.25;31.14;100732.13;4930158;29;20073;-77
2021/04/28 10:37:37;;;;;;;0.80;0.52;;;;;;;15.11;30.59;100697.63;4910318;29;20044;-76
2021/04/28 10:40:11;;;;;;;0.40;0.40;;;;;;;15.50;31.26;100712.97;4939878;28;20490;-76
2021/04/28 10:42:38;;;;;;;0.40;0.40;;;;;;;15.79;31.00;100709.22;4928577;29;20040;-77
2021/04/28 10:45:07;;;;;;;1.08;0.50;;;;;;;15.36;29.91;100668.94;4932327;29;20055;-78
2021/04/28 10:47:46;;;;;;;1.92;0.40;;;;;;;15.59;29.46;100701.56;4913314;29;20167;-79
2021/04/28 10:50:27;;;;;;;0.73;0.38;;;;;;;15.92;28.31;100709.63;4911505;29;20135;-76
2021/04/28 10:53:06;;;;;;;1.85;0.60;;;;;;;15.96;28.62;100701.28;4931099;29;20040;-78
2021/04/28 10:55:57;;;;;;;1.27;0.40;;;;;;;16.33;27.05;100714.06;4900100;29;20055;-77
2021/04/28 10:58:23;;;;;;;0.40;0.40;;;;;;;16.56;29.07;100714.31;4914370;29;20516;-78
2021/04/28 11:00:49;;;;;;;0.40;0.40;;;;;;;16.57;27.85;100702.81;4944416;28;20127;-77
2021/04/28 11:03:35;;;;;;;1.75;0.45;;;;;;;16.78;28.10;100704.19;4908679;29;20497;-77
2021/04/28 11:06:28;;;;;;;0.63;0.40;;;;;;;16.71;28.19;100711.09;4918616;29;20048;-77
2021/04/28 11:08:54;;;;;;;0.50;0.50;;;;;;;16.71;27.76;100709.31;4896101;29;20063;-77
2021/04/28 11:11:32;;;;;;;0.40;0.40;;;;;;;16.88;27.95;100700.44;4915243;29;20037;-77
2021/04/28 11:16:58;;;;;;;1.10;0.32;;;;;;;16.91;25.98;100704.56;4944536;28;20607;-77
2021/04/28 11:19:47;;;;;;;1.27;0.30;;;;;;;17.19;28.54;100697.16;4945815;28;20097;-77
2021/04/28 11:22:19;;;;;;;0.30;0.30;;;;;;;17.20;26.87;100683.81;4929430;29;20063;-76
2021/04/28 11:24:50;;;;;;;0.40;0.40;;;;;;;17.63;27.85;100700.22;4914008;29;20051;-77
2021/04/28 11:27:38;;;;;;;2.25;0.50;;;;;;;17.68;25.55;100682.13;4906082;29;20044;-77
2021/04/28 11:30:05;;;;;;;0.47;0.47;;;;;;;17.52;27.18;100663.72;4918177;29;20044;-77
2021/04/28 11:32:30;;;;;;;0.47;0.40;;;;;;;17.85;26.69;100690.81;4890510;29;20130;-77
2021/04/28 11:34:56;;;;;;;0.52;0.47;;;;;;;17.86;25.90;100697.72;4876495;29;20125;-78
2021/04/28 11:37:22;;;;;;;0.52;0.40;;;;;;;17.99;25.62;100686.66;4906032;29;20052;-77
2021/04/28 11:39:48;;;;;;;0.30;0.30;;;;;;;17.83;25.04;100682.25;4892442;29;20050;-78
2021/04/28 11:42:18;;;;;;;0.57;0.40;;;;;;;17.53;26.36;100657.44;4892974;29;25232;-77
2021/04/28 11:44:55;;;;;;;0.88;0.40;;;;;;;17.42;27.87;100686.78;4890377;29;20046;-77
2021/04/28 11:47:26;;;;;;;0.40;0.40;;;;;;;17.62;26.33;100677.53;4909618;29;20444;-76